sensor_id;sensor_type;location;lat;lon;timestamp;P1;durP1;ratioP1;P2;durP2;ratioP2
16426;SDS011;8322;-33.900;151.170;2022-11-15T00:00:34;6.20;;;1.63;;
16426;SDS011;8322;-33.900;151.170;2022-11-15T00:03:03;6.30;;;1.58;;
16426;SDS011;8322;-33.900;151.170;2022-11-15T00:05:36;4.05;;;1.13;;
16426;SDS011;8322;-33.900;151.170;2022-11-15T00:08:05;7.35;;;1.75;;
16426;SDS011;8322;-33.900;151.170;2022-11-15T00:10:35;8.75;;;1.80;;
16426;SDS011;8322;-33.900;151.170;2022-11-15T00:13:05;6.70;;;1.65;;
16426;SDS011;8322;-33.900;151.170;2022-11-15T00:15:35;7.43;;;2.20;;
16426;SDS011;8322;-33.900;151.170;2022-11-15T00:18:05;4.45;;;1.60;;
16426;SDS011;8322;-33.900;151.170;2022-11-15T00:20:37;8.20;;;1.70;;
16426;SDS011;8322;-33.900;151.170;2022-11-15T00:23:07;7.68;;;2.10;;
16426;SDS011;8322;-33.900;151.170;2022-11-15T00:25:36;6.72;;;1.35;;
16426;SDS011;8322;-33.900;151.170;2022-11-15T00:28:06;6.47;;;1.50;;
16426;SDS011;8322;-33.900;151.170;2022-11-15T00:30:36;6.65;;;1.52;;
16426;SDS011;8322;-33.900;151.170;2022-11-15T00:33:06;5.30;;;1.50;;
16426;SDS011;8322;-33.900;151.170;2022-11-15T00:35:37;7.72;;;1.90;;
16426;SDS011;8322;-33.900;151.170;2022-11-15T00:38:07;12.88;;;2.13;;
16426;SDS011;8322;-33.900;151.170;2022-11-15T00:40:36;10.13;;;2.00;;
16426;SDS011;8322;-33.900;151.170;2022-11-15T00:43:05;11.60;;;2.28;;
16426;SDS011;8322;-33.900;151.170;2022-11-15T00:45:35;9.85;;;1.83;;
16426;SDS011;8322;-33.900;151.170;2022-11-15T00:48:05;7.95;;;2.00;;
16426;SDS011;8322;-33.900;151.170;2022-11-15T00:50:34;7.72;;;2.45;;
16426;SDS011;8322;-33.900;151.170;2022-11-15T00:53:06;10.52;;;4.05;;
16426;SDS011;8322;-33.900;151.170;2022-11-15T00:55:35;10.05;;;2.05;;
16426;SDS011;8322;-33.900;151.170;2022-11-15T00:58:05;10.13;;;2.28;;
16426;SDS011;8322;-33.900;151.170;2022-11-15T01:00:34;10.20;;;2.22;;
16426;SDS011;8322;-33.900;151.170;2022-11-15T01:03:04;8.15;;;1.70;;
16426;SDS011;8322;-33.900;151.170;2022-11-15T01:05:33;14.30;;;2.10;;
16426;SDS011;8322;-33.900;151.170;2022-11-15T01:08:03;9.48;;;1.85;;
16426;SDS011;8322;-33.900;151.170;2022-11-15T01:10:34;9.90;;;1.80;;
16426;SDS011;8322;-33.900;151.170;2022-11-15T01:13:06;8.02;;;1.60;;
16426;SDS011;8322;-33.900;151.170;2022-11-15T01:15:38;9.57;;;2.15;;
16426;SDS011;8322;-33.900;151.170;2022-11-15T01:18:08;11.65;;;2.20;;
16426;SDS011;8322;-33.900;151.170;2022-11-15T01:20:39;8.40;;;1.67;;
16426;SDS011;8322;-33.900;151.170;2022-11-15T01:23:09;13.00;;;2.08;;
16426;SDS011;8322;-33.900;151.170;2022-11-15T01:25:41;11.35;;;2.40;;
16426;SDS011;8322;-33.900;151.170;2022-11-15T01:28:10;9.18;;;1.90;;
16426;SDS011;8322;-33.900;151.170;2022-11-15T01:30:40;9.10;;;2.40;;
16426;SDS011;8322;-33.900;151.170;2022-11-15T01:33:09;9.63;;;2.13;;
16426;SDS011;8322;-33.900;151.170;2022-11-15T01:35:39;10.27;;;1.83;;
16426;SDS011;8322;-33.900;151.170;2022-11-15T01:38:08;6.47;;;1.90;;
16426;SDS011;8322;-33.900;151.170;2022-11-15T01:40:42;8.43;;;1.60;;
16426;SDS011;8322;-33.900;151.170;2022-11-15T01:43:19;6.10;;;1.52;;
16426;SDS011;8322;-33.900;151.170;2022-11-15T01:45:50;5.90;;;1.35;;
16426;SDS011;8322;-33.900;151.170;2022-11-15T01:48:20;10.18;;;1.70;;
16426;SDS011;8322;-33.900;151.170;2022-11-15T01:50:50;10.27;;;1.60;;
16426;SDS011;8322;-33.900;151.170;2022-11-15T01:53:20;6.85;;;1.70;;
16426;SDS011;8322;-33.900;151.170;2022-11-15T01:55:52;7.85;;;1.65;;
16426;SDS011;8322;-33.900;151.170;2022-11-15T01:58:23;9.45;;;2.22;;
16426;SDS011;8322;-33.900;151.170;2022-11-15T02:00:52;6.63;;;2.08;;
16426;SDS011;8322;-33.900;151.170;2022-11-15T02:03:22;12.65;;;2.00;;
16426;SDS011;8322;-33.900;151.170;2022-11-15T02:05:54;10.52;;;1.50;;
16426;SDS011;8322;-33.900;151.170;2022-11-15T02:08:24;7.93;;;1.85;;
16426;SDS011;8322;-33.900;151.170;2022-11-15T02:10:55;8.55;;;2.10;;
16426;SDS011;8322;-33.900;151.170;2022-11-15T02:13:25;9.18;;;1.65;;
16426;SDS011;8322;-33.900;151.170;2022-11-15T02:15:57;12.35;;;3.92;;
16426;SDS011;8322;-33.900;151.170;2022-11-15T02:18:29;11.50;;;2.20;;
16426;SDS011;8322;-33.900;151.170;2022-11-15T02:21:07;7.68;;;1.88;;
16426;SDS011;8322;-33.900;151.170;2022-11-15T02:24:03;12.10;;;2.60;;
16426;SDS011;8322;-33.900;151.170;2022-11-15T02:26:46;13.55;;;2.55;;
16426;SDS011;8322;-33.900;151.170;2022-11-15T02:29:22;8.85;;;1.80;;
16426;SDS011;8322;-33.900;151.170;2022-11-15T02:31:58;9.98;;;2.15;;
16426;SDS011;8322;-33.900;151.170;2022-11-15T02:34:31;9.55;;;2.20;;
16426;SDS011;8322;-33.900;151.170;2022-11-15T02:37:03;8.00;;;2.10;;
16426;SDS011;8322;-33.900;151.170;2022-11-15T02:39:35;9.73;;;2.03;;
16426;SDS011;8322;-33.900;151.170;2022-11-15T02:42:07;12.13;;;2.20;;
16426;SDS011;8322;-33.900;151.170;2022-11-15T02:44:57;12.65;;;2.50;;
16426;SDS011;8322;-33.900;151.170;2022-11-15T02:47:28;11.50;;;2.90;;
16426;SDS011;8322;-33.900;151.170;2022-11-15T02:49:59;9.85;;;2.20;;
16426;SDS011;8322;-33.900;151.170;2022-11-15T02:52:30;16.80;;;2.70;;
16426;SDS011;8322;-33.900;151.170;2022-11-15T02:55:00;11.43;;;1.80;;
16426;SDS011;8322;-33.900;151.170;2022-11-15T02:57:33;12.43;;;2.05;;
16426;SDS011;8322;-33.900;151.170;2022-11-15T03:00:06;10.40;;;2.53;;
16426;SDS011;8322;-33.900;151.170;2022-11-15T03:05:23;9.63;;;2.10;;
16426;SDS011;8322;-33.900;151.170;2022-11-15T03:07:55;8.75;;;2.15;;
16426;SDS011;8322;-33.900;151.170;2022-11-15T03:10:31;7.20;;;1.60;;
16426;SDS011;8322;-33.900;151.170;2022-11-15T03:13:02;9.25;;;1.90;;
16426;SDS011;8322;-33.900;151.170;2022-11-15T03:15:37;8.80;;;2.10;;
16426;SDS011;8322;-33.900;151.170;2022-11-15T03:18:07;11.65;;;2.08;;
16426;SDS011;8322;-33.900;151.170;2022-11-15T03:20:42;10.63;;;2.20;;
16426;SDS011;8322;-33.900;151.170;2022-11-15T03:23:12;10.98;;;2.00;;
16426;SDS011;8322;-33.900;151.170;2022-11-15T03:25:43;14.05;;;2.40;;
16426;SDS011;8322;-33.900;151.170;2022-11-15T03:28:16;12.55;;;2.60;;
16426;SDS011;8322;-33.900;151.170;2022-11-15T03:30:48;9.43;;;2.22;;
16426;SDS011;8322;-33.900;151.170;2022-11-15T03:33:18;8.80;;;1.95;;
16426;SDS011;8322;-33.900;151.170;2022-11-15T03:35:50;6.65;;;1.60;;
16426;SDS011;8322;-33.900;151.170;2022-11-15T03:38:22;8.13;;;2.10;;
16426;SDS011;8322;-33.900;151.170;2022-11-15T03:40:54;10.70;;;2.10;;
16426;SDS011;8322;-33.900;151.170;2022-11-15T03:43:28;11.02;;;2.38;;
16426;SDS011;8322;-33.900;151.170;2022-11-15T03:46:00;13.70;;;2.70;;
16426;SDS011;8322;-33.900;151.170;2022-11-15T03:48:30;9.52;;;2.15;;
16426;SDS011;8322;-33.900;151.170;2022-11-15T03:51:04;14.02;;;2.22;;
16426;SDS011;8322;-33.900;151.170;2022-11-15T03:53:34;10.18;;;2.20;;
16426;SDS011;8322;-33.900;151.170;2022-11-15T03:56:04;12.45;;;1.92;;
16426;SDS011;8322;-33.900;151.170;2022-11-15T03:58:33;9.98;;;2.40;;
16426;SDS011;8322;-33.900;151.170;2022-11-15T04:01:03;10.52;;;2.25;;
16426;SDS011;8322;-33.900;151.170;2022-11-15T04:03:32;8.93;;;2.08;;
16426;SDS011;8322;-33.900;151.170;2022-11-15T04:06:02;10.60;;;2.33;;
16426;SDS011;8322;-33.900;151.170;2022-11-15T04:08:33;10.48;;;2.40;;
16426;SDS011;8322;-33.900;151.170;2022-11-15T04:11:03;13.95;;;2.60;;
16426;SDS011;8322;-33.900;151.170;2022-11-15T04:13:33;13.55;;;2.10;;
16426;SDS011;8322;-33.900;151.170;2022-11-15T04:16:02;14.45;;;2.90;;
16426;SDS011;8322;-33.900;151.170;2022-11-15T04:18:32;23.65;;;7.18;;
16426;SDS011;8322;-33.900;151.170;2022-11-15T04:21:01;14.32;;;2.83;;
16426;SDS011;8322;-33.900;151.170;2022-11-15T04:23:49;15.25;;;2.78;;
16426;SDS011;8322;-33.900;151.170;2022-11-15T04:26:35;12.32;;;2.88;;
16426;SDS011;8322;-33.900;151.170;2022-11-15T04:29:05;10.02;;;2.42;;
16426;SDS011;8322;-33.900;151.170;2022-11-15T04:31:53;10.52;;;2.80;;
16426;SDS011;8322;-33.900;151.170;2022-11-15T04:34:22;14.50;;;2.72;;
16426;SDS011;8322;-33.900;151.170;2022-11-15T04:36:52;11.25;;;2.60;;
16426;SDS011;8322;-33.900;151.170;2022-11-15T04:39:41;14.68;;;2.63;;
16426;SDS011;8322;-33.900;151.170;2022-11-15T04:42:11;12.75;;;2.70;;
16426;SDS011;8322;-33.900;151.170;2022-11-15T04:44:40;12.45;;;2.70;;
16426;SDS011;8322;-33.900;151.170;2022-11-15T04:47:10;10.68;;;2.40;;
16426;SDS011;8322;-33.900;151.170;2022-11-15T04:49:39;12.02;;;2.30;;
16426;SDS011;8322;-33.900;151.170;2022-11-15T04:52:09;10.48;;;2.33;;
16426;SDS011;8322;-33.900;151.170;2022-11-15T04:54:39;12.88;;;2.47;;
16426;SDS011;8322;-33.900;151.170;2022-11-15T04:57:11;10.07;;;2.40;;
16426;SDS011;8322;-33.900;151.170;2022-11-15T04:59:41;9.60;;;2.08;;
16426;SDS011;8322;-33.900;151.170;2022-11-15T05:02:10;7.93;;;1.90;;
16426;SDS011;8322;-33.900;151.170;2022-11-15T05:04:40;11.25;;;2.33;;
16426;SDS011;8322;-33.900;151.170;2022-11-15T05:07:08;10.90;;;2.00;;
16426;SDS011;8322;-33.900;151.170;2022-11-15T05:09:38;11.55;;;2.38;;
16426;SDS011;8322;-33.900;151.170;2022-11-15T05:12:07;10.18;;;2.40;;
16426;SDS011;8322;-33.900;151.170;2022-11-15T05:14:39;12.02;;;2.50;;
16426;SDS011;8322;-33.900;151.170;2022-11-15T05:17:08;9.95;;;2.10;;
16426;SDS011;8322;-33.900;151.170;2022-11-15T05:19:38;11.45;;;2.10;;
16426;SDS011;8322;-33.900;151.170;2022-11-15T05:22:07;10.88;;;2.30;;
16426;SDS011;8322;-33.900;151.170;2022-11-15T05:24:37;8.65;;;2.10;;
16426;SDS011;8322;-33.900;151.170;2022-11-15T05:27:06;12.73;;;2.72;;
16426;SDS011;8322;-33.900;151.170;2022-11-15T05:29:36;11.40;;;2.22;;
16426;SDS011;8322;-33.900;151.170;2022-11-15T05:32:07;11.27;;;2.08;;
16426;SDS011;8322;-33.900;151.170;2022-11-15T05:34:37;11.38;;;2.30;;
16426;SDS011;8322;-33.900;151.170;2022-11-15T05:37:07;12.73;;;2.72;;
16426;SDS011;8322;-33.900;151.170;2022-11-15T05:39:36;8.75;;;2.10;;
16426;SDS011;8322;-33.900;151.170;2022-11-15T05:42:06;14.20;;;2.92;;
16426;SDS011;8322;-33.900;151.170;2022-11-15T05:44:37;11.07;;;2.05;;
16426;SDS011;8322;-33.900;151.170;2022-11-15T05:47:10;11.40;;;1.95;;
16426;SDS011;8322;-33.900;151.170;2022-11-15T05:49:40;7.00;;;1.92;;
16426;SDS011;8322;-33.900;151.170;2022-11-15T05:52:11;11.85;;;2.10;;
16426;SDS011;8322;-33.900;151.170;2022-11-15T05:54:41;8.52;;;2.08;;
16426;SDS011;8322;-33.900;151.170;2022-11-15T05:57:11;11.73;;;1.98;;
16426;SDS011;8322;-33.900;151.170;2022-11-15T05:59:41;11.35;;;2.40;;
16426;SDS011;8322;-33.900;151.170;2022-11-15T06:02:13;15.02;;;2.53;;
16426;SDS011;8322;-33.900;151.170;2022-11-15T06:04:43;12.65;;;2.20;;
16426;SDS011;8322;-33.900;151.170;2022-11-15T06:07:12;12.13;;;2.63;;
16426;SDS011;8322;-33.900;151.170;2022-11-15T06:09:42;7.22;;;1.73;;
16426;SDS011;8322;-33.900;151.170;2022-11-15T06:12:11;16.20;;;2.20;;
16426;SDS011;8322;-33.900;151.170;2022-11-15T06:14:41;13.52;;;2.13;;
16426;SDS011;8322;-33.900;151.170;2022-11-15T06:17:13;13.00;;;1.95;;
16426;SDS011;8322;-33.900;151.170;2022-11-15T06:19:42;9.75;;;2.00;;
16426;SDS011;8322;-33.900;151.170;2022-11-15T06:22:12;12.50;;;2.67;;
16426;SDS011;8322;-33.900;151.170;2022-11-15T06:24:42;11.23;;;1.90;;
16426;SDS011;8322;-33.900;151.170;2022-11-15T06:27:11;11.45;;;2.00;;
16426;SDS011;8322;-33.900;151.170;2022-11-15T06:29:41;8.98;;;2.42;;
16426;SDS011;8322;-33.900;151.170;2022-11-15T06:32:12;12.45;;;2.20;;
16426;SDS011;8322;-33.900;151.170;2022-11-15T06:34:42;11.02;;;2.20;;
16426;SDS011;8322;-33.900;151.170;2022-11-15T06:37:12;10.88;;;1.88;;
16426;SDS011;8322;-33.900;151.170;2022-11-15T06:39:41;11.95;;;2.15;;
16426;SDS011;8322;-33.900;151.170;2022-11-15T06:42:11;15.88;;;2.13;;
16426;SDS011;8322;-33.900;151.170;2022-11-15T06:44:41;11.98;;;3.00;;
16426;SDS011;8322;-33.900;151.170;2022-11-15T06:47:12;16.45;;;3.10;;
16426;SDS011;8322;-33.900;151.170;2022-11-15T06:49:42;14.18;;;2.60;;
16426;SDS011;8322;-33.900;151.170;2022-11-15T06:52:12;10.00;;;2.17;;
16426;SDS011;8322;-33.900;151.170;2022-11-15T06:54:41;11.23;;;2.42;;
16426;SDS011;8322;-33.900;151.170;2022-11-15T06:57:11;13.85;;;3.25;;
16426;SDS011;8322;-33.900;151.170;2022-11-15T06:59:40;16.75;;;2.72;;
16426;SDS011;8322;-33.900;151.170;2022-11-15T07:02:13;13.02;;;3.13;;
16426;SDS011;8322;-33.900;151.170;2022-11-15T07:04:43;12.02;;;2.60;;
16426;SDS011;8322;-33.900;151.170;2022-11-15T07:07:13;13.77;;;2.65;;
16426;SDS011;8322;-33.900;151.170;2022-11-15T07:09:42;16.70;;;2.88;;
16426;SDS011;8322;-33.900;151.170;2022-11-15T07:12:12;14.07;;;2.33;;
16426;SDS011;8322;-33.900;151.170;2022-11-15T07:14:42;13.63;;;2.50;;
16426;SDS011;8322;-33.900;151.170;2022-11-15T07:17:14;9.95;;;2.00;;
16426;SDS011;8322;-33.900;151.170;2022-11-15T07:19:43;14.05;;;2.28;;
16426;SDS011;8322;-33.900;151.170;2022-11-15T07:22:13;17.10;;;2.47;;
16426;SDS011;8322;-33.900;151.170;2022-11-15T07:24:43;13.65;;;2.35;;
16426;SDS011;8322;-33.900;151.170;2022-11-15T07:27:12;14.15;;;2.70;;
16426;SDS011;8322;-33.900;151.170;2022-11-15T07:29:42;13.00;;;2.40;;
16426;SDS011;8322;-33.900;151.170;2022-11-15T07:32:13;12.27;;;2.25;;
16426;SDS011;8322;-33.900;151.170;2022-11-15T07:34:43;11.30;;;2.30;;
16426;SDS011;8322;-33.900;151.170;2022-11-15T07:37:12;13.32;;;2.47;;
16426;SDS011;8322;-33.900;151.170;2022-11-15T07:39:42;17.50;;;3.33;;
16426;SDS011;8322;-33.900;151.170;2022-11-15T07:42:12;19.25;;;3.20;;
16426;SDS011;8322;-33.900;151.170;2022-11-15T07:44:58;15.75;;;3.45;;
16426;SDS011;8322;-33.900;151.170;2022-11-15T07:47:30;13.85;;;3.10;;
16426;SDS011;8322;-33.900;151.170;2022-11-15T07:49:59;11.57;;;2.97;;
16426;SDS011;8322;-33.900;151.170;2022-11-15T07:52:29;16.13;;;3.35;;
16426;SDS011;8322;-33.900;151.170;2022-11-15T07:54:58;15.77;;;3.10;;
16426;SDS011;8322;-33.900;151.170;2022-11-15T07:57:29;14.63;;;3.00;;
16426;SDS011;8322;-33.900;151.170;2022-11-15T07:59:59;12.05;;;2.50;;
16426;SDS011;8322;-33.900;151.170;2022-11-15T08:02:28;12.48;;;2.60;;
16426;SDS011;8322;-33.900;151.170;2022-11-15T08:05:00;13.18;;;3.00;;
16426;SDS011;8322;-33.900;151.170;2022-11-15T08:07:29;13.85;;;2.90;;
16426;SDS011;8322;-33.900;151.170;2022-11-15T08:09:59;11.52;;;2.88;;
16426;SDS011;8322;-33.900;151.170;2022-11-15T08:12:29;13.55;;;2.60;;
16426;SDS011;8322;-33.900;151.170;2022-11-15T08:14:59;15.68;;;2.50;;
16426;SDS011;8322;-33.900;151.170;2022-11-15T08:17:29;12.93;;;3.05;;
16426;SDS011;8322;-33.900;151.170;2022-11-15T08:20:01;13.27;;;2.38;;
16426;SDS011;8322;-33.900;151.170;2022-11-15T08:22:31;11.05;;;2.50;;
16426;SDS011;8322;-33.900;151.170;2022-11-15T08:25:02;12.40;;;2.45;;
16426;SDS011;8322;-33.900;151.170;2022-11-15T08:27:32;12.60;;;2.55;;
16426;SDS011;8322;-33.900;151.170;2022-11-15T08:30:01;13.13;;;3.22;;
16426;SDS011;8322;-33.900;151.170;2022-11-15T08:32:31;12.30;;;3.10;;
16426;SDS011;8322;-33.900;151.170;2022-11-15T08:35:03;15.27;;;3.15;;
16426;SDS011;8322;-33.900;151.170;2022-11-15T08:37:32;13.73;;;3.10;;
16426;SDS011;8322;-33.900;151.170;2022-11-15T08:40:02;12.35;;;2.60;;
16426;SDS011;8322;-33.900;151.170;2022-11-15T08:42:32;9.90;;;2.17;;
16426;SDS011;8322;-33.900;151.170;2022-11-15T08:45:01;12.57;;;2.05;;
16426;SDS011;8322;-33.900;151.170;2022-11-15T08:47:31;16.27;;;2.88;;
16426;SDS011;8322;-33.900;151.170;2022-11-15T08:50:02;14.05;;;2.55;;
16426;SDS011;8322;-33.900;151.170;2022-11-15T08:52:32;8.70;;;2.55;;
16426;SDS011;8322;-33.900;151.170;2022-11-15T08:55:02;14.85;;;2.47;;
16426;SDS011;8322;-33.900;151.170;2022-11-15T08:57:31;11.63;;;2.58;;
16426;SDS011;8322;-33.900;151.170;2022-11-15T09:00:01;12.48;;;3.00;;
16426;SDS011;8322;-33.900;151.170;2022-11-15T09:02:30;15.23;;;2.58;;
16426;SDS011;8322;-33.900;151.170;2022-11-15T09:05:00;12.98;;;2.88;;
16426;SDS011;8322;-33.900;151.170;2022-11-15T09:07:31;10.57;;;2.25;;
16426;SDS011;8322;-33.900;151.170;2022-11-15T09:10:01;12.23;;;3.03;;
16426;SDS011;8322;-33.900;151.170;2022-11-15T09:12:31;12.35;;;2.88;;
16426;SDS011;8322;-33.900;151.170;2022-11-15T09:15:01;14.95;;;2.83;;
16426;SDS011;8322;-33.900;151.170;2022-11-15T09:17:30;9.98;;;2.47;;
16426;SDS011;8322;-33.900;151.170;2022-11-15T09:20:00;14.57;;;2.33;;
16426;SDS011;8322;-33.900;151.170;2022-11-15T09:22:32;14.27;;;2.50;;
16426;SDS011;8322;-33.900;151.170;2022-11-15T09:25:02;14.70;;;2.40;;
16426;SDS011;8322;-33.900;151.170;2022-11-15T09:27:32;11.85;;;2.47;;
16426;SDS011;8322;-33.900;151.170;2022-11-15T09:30:01;12.02;;;2.58;;
16426;SDS011;8322;-33.900;151.170;2022-11-15T09:32:31;12.43;;;2.60;;
16426;SDS011;8322;-33.900;151.170;2022-11-15T09:35:01;10.30;;;2.45;;
16426;SDS011;8322;-33.900;151.170;2022-11-15T09:37:33;14.15;;;2.95;;
16426;SDS011;8322;-33.900;151.170;2022-11-15T09:40:03;12.10;;;2.30;;
16426;SDS011;8322;-33.900;151.170;2022-11-15T09:42:37;11.52;;;2.45;;
16426;SDS011;8322;-33.900;151.170;2022-11-15T09:45:15;14.95;;;2.40;;
16426;SDS011;8322;-33.900;151.170;2022-11-15T09:47:49;8.10;;;2.10;;
16426;SDS011;8322;-33.900;151.170;2022-11-15T09:50:28;12.88;;;2.55;;
16426;SDS011;8322;-33.900;151.170;2022-11-15T09:53:02;10.63;;;2.25;;
16426;SDS011;8322;-33.900;151.170;2022-11-15T09:55:34;10.77;;;2.58;;
16426;SDS011;8322;-33.900;151.170;2022-11-15T09:58:09;10.65;;;2.33;;
16426;SDS011;8322;-33.900;151.170;2022-11-15T10:00:40;11.93;;;3.22;;
16426;SDS011;8322;-33.900;151.170;2022-11-15T10:03:12;12.02;;;2.88;;
16426;SDS011;8322;-33.900;151.170;2022-11-15T10:05:43;12.57;;;2.67;;
16426;SDS011;8322;-33.900;151.170;2022-11-15T10:10:59;10.32;;;2.55;;
16426;SDS011;8322;-33.900;151.170;2022-11-15T10:13:30;13.07;;;2.65;;
16426;SDS011;8322;-33.900;151.170;2022-11-15T10:16:02;6.07;;;2.10;;
16426;SDS011;8322;-33.900;151.170;2022-11-15T10:18:34;10.30;;;2.38;;
16426;SDS011;8322;-33.900;151.170;2022-11-15T10:21:08;10.45;;;2.40;;
16426;SDS011;8322;-33.900;151.170;2022-11-15T10:23:41;11.75;;;2.47;;
16426;SDS011;8322;-33.900;151.170;2022-11-15T10:26:14;10.48;;;2.17;;
16426;SDS011;8322;-33.900;151.170;2022-11-15T10:28:44;9.57;;;2.05;;
16426;SDS011;8322;-33.900;151.170;2022-11-15T10:31:23;11.80;;;2.60;;
16426;SDS011;8322;-33.900;151.170;2022-11-15T10:33:56;10.23;;;2.60;;
16426;SDS011;8322;-33.900;151.170;2022-11-15T10:36:28;8.63;;;2.35;;
16426;SDS011;8322;-33.900;151.170;2022-11-15T10:38:58;14.77;;;2.65;;
16426;SDS011;8322;-33.900;151.170;2022-11-15T10:41:39;10.23;;;2.38;;
16426;SDS011;8322;-33.900;151.170;2022-11-15T10:44:18;11.02;;;2.15;;
16426;SDS011;8322;-33.900;151.170;2022-11-15T10:46:48;11.55;;;2.30;;
16426;SDS011;8322;-33.900;151.170;2022-11-15T10:49:18;12.35;;;2.50;;
16426;SDS011;8322;-33.900;151.170;2022-11-15T10:51:48;10.48;;;2.30;;
16426;SDS011;8322;-33.900;151.170;2022-11-15T10:54:19;13.38;;;2.30;;
16426;SDS011;8322;-33.900;151.170;2022-11-15T10:56:53;8.63;;;1.90;;
16426;SDS011;8322;-33.900;151.170;2022-11-15T10:59:23;9.40;;;2.15;;
16426;SDS011;8322;-33.900;151.170;2022-11-15T11:01:53;11.05;;;2.30;;
16426;SDS011;8322;-33.900;151.170;2022-11-15T11:04:23;11.25;;;2.53;;
16426;SDS011;8322;-33.900;151.170;2022-11-15T11:06:53;8.00;;;1.92;;
16426;SDS011;8322;-33.900;151.170;2022-11-15T11:09:25;10.93;;;2.22;;
16426;SDS011;8322;-33.900;151.170;2022-11-15T11:11:58;9.07;;;2.05;;
16426;SDS011;8322;-33.900;151.170;2022-11-15T11:14:28;8.90;;;1.75;;
16426;SDS011;8322;-33.900;151.170;2022-11-15T11:17:02;10.32;;;1.98;;
16426;SDS011;8322;-33.900;151.170;2022-11-15T11:19:45;7.80;;;1.73;;
16426;SDS011;8322;-33.900;151.170;2022-11-15T11:22:18;4.97;;;1.52;;
16426;SDS011;8322;-33.900;151.170;2022-11-15T11:24:51;7.72;;;1.55;;
16426;SDS011;8322;-33.900;151.170;2022-11-15T11:27:28;5.03;;;1.40;;
16426;SDS011;8322;-33.900;151.170;2022-11-15T11:30:03;6.03;;;1.45;;
16426;SDS011;8322;-33.900;151.170;2022-11-15T11:32:42;3.42;;;1.15;;
16426;SDS011;8322;-33.900;151.170;2022-11-15T11:35:17;4.55;;;1.40;;
16426;SDS011;8322;-33.900;151.170;2022-11-15T11:37:49;5.85;;;1.50;;
16426;SDS011;8322;-33.900;151.170;2022-11-15T11:40:28;3.85;;;1.20;;
16426;SDS011;8322;-33.900;151.170;2022-11-15T11:43:01;3.38;;;1.25;;
16426;SDS011;8322;-33.900;151.170;2022-11-15T11:48:21;4.25;;;1.30;;
16426;SDS011;8322;-33.900;151.170;2022-11-15T11:50:52;4.25;;;1.40;;
16426;SDS011;8322;-33.900;151.170;2022-11-15T11:53:25;3.45;;;1.20;;
16426;SDS011;8322;-33.900;151.170;2022-11-15T11:55:56;3.70;;;1.20;;
16426;SDS011;8322;-33.900;151.170;2022-11-15T11:58:33;3.00;;;1.02;;
16426;SDS011;8322;-33.900;151.170;2022-11-15T12:01:11;3.03;;;1.17;;
16426;SDS011;8322;-33.900;151.170;2022-11-15T12:03:43;4.45;;;1.40;;
16426;SDS011;8322;-33.900;151.170;2022-11-15T12:06:17;3.67;;;1.40;;
16426;SDS011;8322;-33.900;151.170;2022-11-15T12:08:50;3.47;;;1.13;;
16426;SDS011;8322;-33.900;151.170;2022-11-15T12:11:22;5.90;;;1.60;;
16426;SDS011;8322;-33.900;151.170;2022-11-15T12:13:56;3.35;;;1.60;;
16426;SDS011;8322;-33.900;151.170;2022-11-15T12:16:27;1.80;;;1.00;;
16426;SDS011;8322;-33.900;151.170;2022-11-15T12:18:59;3.20;;;1.10;;
16426;SDS011;8322;-33.900;151.170;2022-11-15T12:21:32;2.17;;;0.82;;
16426;SDS011;8322;-33.900;151.170;2022-11-15T12:24:04;1.60;;;1.02;;
16426;SDS011;8322;-33.900;151.170;2022-11-15T12:26:35;2.13;;;0.82;;
16426;SDS011;8322;-33.900;151.170;2022-11-15T12:29:09;2.55;;;0.70;;
16426;SDS011;8322;-33.900;151.170;2022-11-15T12:31:40;2.80;;;0.80;;
16426;SDS011;8322;-33.900;151.170;2022-11-15T12:34:16;3.53;;;0.80;;
16426;SDS011;8322;-33.900;151.170;2022-11-15T12:36:58;1.17;;;0.70;;
16426;SDS011;8322;-33.900;151.170;2022-11-15T12:42:35;1.80;;;0.73;;
16426;SDS011;8322;-33.900;151.170;2022-11-15T12:45:22;2.60;;;0.82;;
16426;SDS011;8322;-33.900;151.170;2022-11-15T12:47:52;4.65;;;0.90;;
16426;SDS011;8322;-33.900;151.170;2022-11-15T12:58:45;2.90;;;0.77;;
16426;SDS011;8322;-33.900;151.170;2022-11-15T13:04:11;3.42;;;1.00;;
16426;SDS011;8322;-33.900;151.170;2022-11-15T13:06:42;2.65;;;0.70;;
16426;SDS011;8322;-33.900;151.170;2022-11-15T13:11:59;2.38;;;0.75;;
16426;SDS011;8322;-33.900;151.170;2022-11-15T13:14:40;3.00;;;0.93;;
16426;SDS011;8322;-33.900;151.170;2022-11-15T13:17:27;2.42;;;0.85;;
16426;SDS011;8322;-33.900;151.170;2022-11-15T13:20:01;2.40;;;0.90;;
16426;SDS011;8322;-33.900;151.170;2022-11-15T13:22:38;2.03;;;0.73;;
16426;SDS011;8322;-33.900;151.170;2022-11-15T13:28:09;5.78;;;1.02;;
16426;SDS011;8322;-33.900;151.170;2022-11-15T13:30:39;5.05;;;0.80;;
16426;SDS011;8322;-33.900;151.170;2022-11-15T13:33:09;3.22;;;0.90;;
16426;SDS011;8322;-33.900;151.170;2022-11-15T13:35:42;1.55;;;0.98;;
16426;SDS011;8322;-33.900;151.170;2022-11-15T13:38:18;2.03;;;0.70;;
16426;SDS011;8322;-33.900;151.170;2022-11-15T13:40:48;3.65;;;1.02;;
16426;SDS011;8322;-33.900;151.170;2022-11-15T13:43:22;1.95;;;0.90;;
16426;SDS011;8322;-33.900;151.170;2022-11-15T13:46:09;2.63;;;0.90;;
16426;SDS011;8322;-33.900;151.170;2022-11-15T13:48:39;2.50;;;0.88;;
16426;SDS011;8322;-33.900;151.170;2022-11-15T13:51:12;3.42;;;0.80;;
16426;SDS011;8322;-33.900;151.170;2022-11-15T13:53:44;1.40;;;0.88;;
16426;SDS011;8322;-33.900;151.170;2022-11-15T13:56:15;2.67;;;0.90;;
16426;SDS011;8322;-33.900;151.170;2022-11-15T13:58:45;2.28;;;0.93;;
16426;SDS011;8322;-33.900;151.170;2022-11-15T14:01:15;4.03;;;1.00;;
16426;SDS011;8322;-33.900;151.170;2022-11-15T14:03:47;2.45;;;0.80;;
16426;SDS011;8322;-33.900;151.170;2022-11-15T14:06:19;2.88;;;1.00;;
16426;SDS011;8322;-33.900;151.170;2022-11-15T14:11:37;1.65;;;0.80;;
16426;SDS011;8322;-33.900;151.170;2022-11-15T14:14:13;2.55;;;0.95;;
16426;SDS011;8322;-33.900;151.170;2022-11-15T14:16:44;2.10;;;0.70;;
16426;SDS011;8322;-33.900;151.170;2022-11-15T14:22:11;2.22;;;0.80;;
16426;SDS011;8322;-33.900;151.170;2022-11-15T14:24:41;2.53;;;0.80;;
16426;SDS011;8322;-33.900;151.170;2022-11-15T14:27:21;1.65;;;0.80;;
16426;SDS011;8322;-33.900;151.170;2022-11-15T14:29:51;2.20;;;0.95;;
16426;SDS011;8322;-33.900;151.170;2022-11-15T14:32:21;3.72;;;0.90;;
16426;SDS011;8322;-33.900;151.170;2022-11-15T14:34:54;3.15;;;0.90;;
16426;SDS011;8322;-33.900;151.170;2022-11-15T14:37:25;5.35;;;0.90;;
16426;SDS011;8322;-33.900;151.170;2022-11-15T14:39:57;4.93;;;1.02;;
16426;SDS011;8322;-33.900;151.170;2022-11-15T14:42:26;1.33;;;0.70;;
16426;SDS011;8322;-33.900;151.170;2022-11-15T14:44:56;2.65;;;0.90;;
16426;SDS011;8322;-33.900;151.170;2022-11-15T14:47:25;3.42;;;1.05;;
16426;SDS011;8322;-33.900;151.170;2022-11-15T14:49:55;2.35;;;0.95;;
16426;SDS011;8322;-33.900;151.170;2022-11-15T14:52:27;5.00;;;1.17;;
16426;SDS011;8322;-33.900;151.170;2022-11-15T14:54:59;1.60;;;0.80;;
16426;SDS011;8322;-33.900;151.170;2022-11-15T14:57:29;2.25;;;0.70;;
16426;SDS011;8322;-33.900;151.170;2022-11-15T14:59:58;2.72;;;0.90;;
16426;SDS011;8322;-33.900;151.170;2022-11-15T15:02:28;2.95;;;1.00;;
16426;SDS011;8322;-33.900;151.170;2022-11-15T15:04:58;2.95;;;0.95;;
16426;SDS011;8322;-33.900;151.170;2022-11-15T15:07:30;3.05;;;1.05;;
16426;SDS011;8322;-33.900;151.170;2022-11-15T15:10:00;2.80;;;0.80;;
16426;SDS011;8322;-33.900;151.170;2022-11-15T15:12:29;3.80;;;1.00;;